Time,TemperatureF,DewpointF,PressureIn,WindDirection,WindDirectionDegrees,WindSpeedMPH,WindSpeedGustMPH,Humidity,HourlyPrecipIn,Conditions,Clouds,dailyrainin,SoftwareType,DateUTC
2013-04-12 05:16:00,40.8,40.1,29.93,NE,45,1.0,-999.0,97,-99.99,,,0.00,meteohub,2013-04-12 10:16:00,
2013-04-12 05:17:00,40.8,40.1,29.93,NE,45,1.0,-999.0,97,-99.99,,,0.00,meteohub,2013-04-12 10:17:00,
2013-04-12 05:23:00,40.8,40.1,29.94,NE,45,0.0,2.0,97,0.00,,,0.00,meteohub,2013-04-12 10:23:00,
2013-04-12 05:28:00,40.8,40.1,29.94,NW,315,0.0,2.0,97,0.00,,,0.00,meteohub,2013-04-12 10:28:00,
2013-04-12 05:33:00,40.6,39.9,29.94,SE,135,0.0,2.0,97,0.00,,,0.00,meteohub,2013-04-12 10:33:00,
2013-04-12 05:38:00,40.3,39.6,29.94,SE,135,1.0,1.0,97,0.00,,,0.00,meteohub,2013-04-12 10:38:00,
2013-04-12 05:43:00,40.3,39.6,29.94,West,270,0.0,1.0,97,0.00,,,0.00,meteohub,2013-04-12 10:43:00,
2013-04-12 05:48:00,40.1,39.4,29.94,NE,45,0.0,2.0,97,0.00,,,0.00,meteohub,2013-04-12 10:48:00,
2013-04-12 05:53:00,40.3,39.6,29.94,NE,45,0.0,2.0,97,0.00,,,0.00,meteohub,2013-04-12 10:53:00,
2013-04-12 05:58:00,40.1,39.4,29.94,NE,45,0.0,2.0,97,0.00,,,0.00,meteohub,2013-04-12 10:58:00,
2013-04-12 06:03:00,39.9,39.4,29.94,NE,45,2.0,2.0,98,0.00,,,0.00,meteohub,2013-04-12 11:03:00,
2013-04-12 06:08:00,40.1,39.6,29.94,NE,45,0.0,2.0,98,0.00,,,0.00,meteohub,2013-04-12 11:08:00,
2013-04-12 06:13:00,40.1,39.6,29.95,SE,135,1.0,2.0,98,0.00,,,0.00,meteohub,2013-04-12 11:13:00,
2013-04-12 06:18:00,40.1,39.6,29.95,SE,135,1.0,2.0,98,0.00,,,0.00,meteohub,2013-04-12 11:18:00,
2013-04-12 06:23:00,39.7,39.2,29.96,SE,135,1.0,2.0,98,0.00,,,0.00,meteohub,2013-04-12 11:23:00,
2013-04-12 06:28:00,39.7,39.2,29.96,SE,135,0.0,2.0,98,0.00,,,0.00,meteohub,2013-04-12 11:28:00,
2013-04-12 06:33:00,39.6,39.0,29.96,SE,135,0.0,2.0,98,0.00,,,0.00,meteohub,2013-04-12 11:33:00,
2013-04-12 06:38:00,39.4,38.8,29.96,NW,315,0.0,2.0,98,0.00,,,0.00,meteohub,2013-04-12 11:38:00,
2013-04-12 06:43:00,39.4,38.8,29.97,NW,315,0.0,2.0,98,0.00,,,0.00,meteohub,2013-04-12 11:43:00,
2013-04-12 06:48:00,39.2,38.5,29.97,NW,315,0.0,0.0,97,0.00,,,0.00,meteohub,2013-04-12 11:48:00,
2013-04-12 06:54:00,38.7,38.1,29.97,NW,315,0.0,0.0,98,0.00,,,0.00,meteohub,2013-04-12 11:54:00,
2013-04-12 06:59:00,38.7,38.1,29.97,NW,315,0.0,0.0,98,0.00,,,0.00,meteohub,2013-04-12 11:59:00,
2013-04-12 07:04:00,38.7,38.1,29.97,NW,315,0.0,0.0,98,0.00,,,0.00,meteohub,2013-04-12 12:04:00,
2013-04-12 07:09:00,38.5,37.9,29.98,NW,315,0.0,0.0,98,0.00,,,0.00,meteohub,2013-04-12 12:09:00,
2013-04-12 07:14:00,38.5,37.9,29.98,NW,315,0.0,0.0,98,0.00,,,0.00,meteohub,2013-04-12 12:14:00,
2013-04-12 07:19:00,38.5,37.9,29.98,NW,315,0.0,0.0,98,0.00,,,0.00,meteohub,2013-04-12 12:19:00,
2013-04-12 07:24:00,38.5,38.3,29.98,NW,315,0.0,0.0,99,0.00,,,0.00,meteohub,2013-04-12 12:24:00,
2013-04-12 07:29:00,38.7,38.5,29.99,South,180,1.0,0.0,99,0.00,,,0.00,meteohub,2013-04-12 12:29:00,
2013-04-12 07:34:00,38.7,38.5,29.99,South,180,0.0,1.0,99,0.00,,,0.00,meteohub,2013-04-12 12:34:00,
2013-04-12 07:39:00,39.0,38.8,29.99,South,180,1.0,2.0,99,0.00,,,0.00,meteohub,2013-04-12 12:39:00,
2013-04-12 07:44:00,39.4,38.8,29.99,South,180,0.0,2.0,98,0.00,,,0.00,meteohub,2013-04-12 12:44:00,
2013-04-12 07:49:00,39.7,39.2,29.99,South,180,0.0,1.0,98,0.00,,,0.00,meteohub,2013-04-12 12:49:00,
2013-04-12 07:54:00,40.5,40.3,29.99,South,180,0.0,1.0,99,0.00,,,0.00,meteohub,2013-04-12 12:54:00,
2013-04-12 07:59:00,41.0,40.5,30.00,South,180,0.0,1.0,98,0.00,,,0.00,meteohub,2013-04-12 12:59:00,
2013-04-12 08:04:00,41.5,41.4,30.00,South,180,0.0,1.0,99,0.00,,,0.00,meteohub,2013-04-12 13:04:00,
2013-04-12 08:09:00,42.3,42.1,30.00,South,180,0.0,1.0,99,0.00,,,0.00,meteohub,2013-04-12 13:09:00,
2013-04-12 08:14:00,43.0,42.4,30.00,South,180,0.0,1.0,98,0.00,,,0.00,meteohub,2013-04-12 13:14:00,
2013-04-12 08:20:00,43.9,43.3,30.00,West,270,0.0,1.0,98,0.00,,,0.00,meteohub,2013-04-12 13:20:00,
2013-04-12 08:25:00,45.1,44.4,30.00,West,270,1.0,1.0,97,0.00,,,0.00,meteohub,2013-04-12 13:25:00,
2013-04-12 08:30:00,46.4,45.9,30.01,West,270,1.0,2.0,98,0.00,,,0.00,meteohub,2013-04-12 13:30:00,
2013-04-12 08:35:00,47.8,47.7,30.00,West,270,1.0,2.0,99,0.00,,,0.00,meteohub,2013-04-12 13:35:00,
2013-04-12 08:40:00,49.5,48.9,30.01,NW,315,1.0,1.0,98,0.00,,,0.00,meteohub,2013-04-12 13:40:00,
2013-04-12 08:45:00,51.1,50.0,30.01,NW,315,0.0,1.0,96,0.00,,,0.00,meteohub,2013-04-12 13:45:00,
2013-04-12 08:50:00,52.0,50.4,30.01,NW,315,1.0,1.0,94,0.00,,,0.00,meteohub,2013-04-12 13:50:00,
2013-04-12 08:55:00,53.8,51.3,30.01,SW,225,2.0,3.0,91,0.00,,,0.00,meteohub,2013-04-12 13:55:00,
2013-04-12 09:00:00,54.5,50.4,30.01,West,270,2.0,3.0,86,0.00,,,0.00,meteohub,2013-04-12 14:00:00,
2013-04-12 09:05:00,54.5,50.4,30.01,West,270,2.0,2.0,86,0.00,,,0.00,meteohub,2013-04-12 14:05:00,
2013-04-12 09:10:00,57.6,50.4,30.01,SW,225,2.0,2.0,77,0.00,,,0.00,meteohub,2013-04-12 14:10:00,
2013-04-12 09:15:00,58.3,50.0,30.01,West,270,2.0,2.0,74,0.00,,,0.00,meteohub,2013-04-12 14:15:00,
2013-04-12 09:20:00,59.5,50.5,30.02,West,270,2.0,2.0,72,0.00,,,0.00,meteohub,2013-04-12 14:20:00,
2013-04-12 09:26:00,60.8,50.2,30.02,NW,315,1.0,2.0,68,0.00,,,0.00,meteohub,2013-04-12 14:26:00,
2013-04-12 09:31:00,62.1,50.5,30.02,West,270,2.0,4.0,66,0.00,,,0.00,meteohub,2013-04-12 14:31:00,
2013-04-12 09:36:00,63.0,46.6,30.02,East,90,6.0,6.0,55,0.00,,,0.00,meteohub,2013-04-12 14:36:00,
2013-04-12 09:41:00,63.5,45.0,30.02,SE,135,7.0,7.0,51,0.00,,,0.00,meteohub,2013-04-12 14:41:00,
2013-04-12 09:46:00,64.2,45.7,30.02,East,90,5.0,8.0,51,0.00,,,0.00,meteohub,2013-04-12 14:46:00,
2013-04-12 09:52:00,65.5,45.3,30.02,NE,45,11.0,11.0,48,0.00,,,0.00,meteohub,2013-04-12 14:52:00,
2013-04-12 09:57:00,65.5,44.8,30.02,SE,135,4.0,11.0,47,0.00,,,0.00,meteohub,2013-04-12 14:57:00,
2013-04-12 10:02:00,66.6,45.7,30.03,North,0,3.0,11.0,47,0.00,,,0.00,meteohub,2013-04-12 15:02:00,
2013-04-12 10:07:00,67.6,45.5,30.02,East,90,9.0,11.0,45,0.00,,,0.00,meteohub,2013-04-12 15:07:00,
2013-04-12 10:12:00,66.9,44.2,30.03,ESE,113,8.0,10.0,44,0.00,,,0.00,meteohub,2013-04-12 15:12:00,
2013-04-12 10:17:00,67.3,45.1,30.03,East,90,8.0,10.0,45,0.00,,,0.00,meteohub,2013-04-12 15:17:00,
2013-04-12 10:22:00,68.0,45.3,30.03,NE,45,4.0,10.0,44,0.00,,,0.00,meteohub,2013-04-12 15:22:00,
2013-04-12 10:27:00,68.0,44.1,30.03,NE,45,8.0,10.0,42,0.00,,,0.00,meteohub,2013-04-12 15:27:00,
2013-04-12 10:32:00,68.2,45.5,30.03,East,90,7.0,11.0,44,0.00,,,0.00,meteohub,2013-04-12 15:32:00,
2013-04-12 10:37:00,69.4,46.0,30.03,NE,45,7.0,11.0,43,0.00,,,0.00,meteohub,2013-04-12 15:37:00,
2013-04-12 10:42:00,69.3,45.9,30.03,NE,45,9.0,11.0,43,0.00,,,0.00,meteohub,2013-04-12 15:42:00,
2013-04-12 10:47:00,69.3,46.4,30.02,East,90,5.0,10.0,44,0.00,,,0.00,meteohub,2013-04-12 15:47:00,
2013-04-12 10:52:00,70.5,46.4,30.03,NE,45,5.0,11.0,42,0.00,,,0.00,meteohub,2013-04-12 15:52:00,
2013-04-12 10:57:00,72.0,46.9,30.03,East,90,4.0,11.0,41,0.00,,,0.00,meteohub,2013-04-12 15:57:00,
2013-04-12 11:02:00,72.9,47.8,30.03,NE,45,11.0,11.0,41,0.00,,,0.00,meteohub,2013-04-12 16:02:00,
2013-04-12 11:07:00,72.9,47.8,30.03,NE,45,11.0,11.0,41,0.00,,,0.00,meteohub,2013-04-12 16:07:00,
2013-04-12 11:12:00,73.2,44.6,30.03,ESE,113,9.0,11.0,36,0.00,,,0.00,meteohub,2013-04-12 16:12:00,
2013-04-12 11:17:00,72.3,45.3,30.03,NE,45,4.0,12.0,38,0.00,,,0.00,meteohub,2013-04-12 16:17:00,
2013-04-12 11:22:00,72.7,45.0,30.03,NE,45,5.0,12.0,37,0.00,,,0.00,meteohub,2013-04-12 16:22:00,
2013-04-12 11:27:00,73.0,44.4,30.02,East,90,5.0,12.0,36,0.00,,,0.00,meteohub,2013-04-12 16:27:00,
2013-04-12 11:32:00,73.8,45.1,30.03,East,90,8.0,10.0,36,0.00,,,0.00,meteohub,2013-04-12 16:32:00,
2013-04-12 11:38:00,74.5,45.0,30.03,NE,45,6.0,10.0,35,0.00,,,0.00,meteohub,2013-04-12 16:38:00,
2013-04-12 11:43:00,74.5,45.0,30.03,East,90,8.0,9.0,35,0.00,,,0.00,meteohub,2013-04-12 16:43:00,
2013-04-12 11:48:00,74.5,45.0,30.02,East,90,11.0,11.0,35,0.00,,,0.00,meteohub,2013-04-12 16:48:00,
2013-04-12 11:53:00,74.7,45.1,30.02,East,90,4.0,11.0,35,0.00,,,0.00,meteohub,2013-04-12 16:53:00,
2013-04-12 11:58:00,75.4,45.9,30.02,ENE,68,5.0,11.0,35,0.00,,,0.00,meteohub,2013-04-12 16:58:00,
2013-04-12 12:03:00,77.0,45.7,30.02,North,0,7.0,11.0,33,0.00,,,0.00,meteohub,2013-04-12 17:03:00,
2013-04-12 12:08:00,76.5,45.1,30.02,NE,45,8.0,8.0,33,0.00,,,0.00,meteohub,2013-04-12 17:08:00,
2013-04-12 12:13:00,76.6,46.2,30.02,ENE,68,8.0,11.0,34,0.00,,,0.00,meteohub,2013-04-12 17:13:00,
2013-04-12 12:18:00,77.7,45.5,30.02,NE,45,4.0,11.0,32,0.00,,,0.00,meteohub,2013-04-12 17:18:00,
2013-04-12 12:23:00,77.9,46.4,30.01,NE,45,7.0,11.0,33,0.00,,,0.00,meteohub,2013-04-12 17:23:00,
2013-04-12 12:28:00,79.3,46.0,30.01,North,0,6.0,8.0,31,0.00,,,0.00,meteohub,2013-04-12 17:28:00,
2013-04-12 12:33:00,79.2,44.2,30.01,NNE,23,6.0,7.0,29,0.00,,,0.00,meteohub,2013-04-12 17:33:00,
2013-04-12 12:39:00,79.5,45.3,30.01,NNW,338,5.0,8.0,30,0.00,,,0.00,meteohub,2013-04-12 17:39:00,
2013-04-12 12:44:00,80.4,45.3,30.01,SW,225,9.0,9.0,29,0.00,,,0.00,meteohub,2013-04-12 17:44:00,
2013-04-12 12:49:00,79.9,44.8,30.01,NE,45,9.0,9.0,29,0.00,,,0.00,meteohub,2013-04-12 17:49:00,
2013-04-12 12:54:00,79.5,44.4,30.01,ENE,68,5.0,9.0,29,0.00,,,0.00,meteohub,2013-04-12 17:54:00,
2013-04-12 13:00:00,80.4,46.9,30.00,NNE,23,5.0,10.0,31,0.00,,,0.00,meteohub,2013-04-12 18:00:00,
2013-04-12 13:05:00,80.6,44.4,30.00,NW,315,4.0,10.0,28,0.00,,,0.00,meteohub,2013-04-12 18:05:00,
2013-04-12 13:10:00,81.5,43.3,30.00,NE,45,7.0,10.0,26,0.00,,,0.00,meteohub,2013-04-12 18:10:00,
2013-04-12 13:15:00,80.1,43.0,29.99,East,90,7.0,7.0,27,0.00,,,0.00,meteohub,2013-04-12 18:15:00,
2013-04-12 13:20:00,80.1,45.0,29.99,ENE,68,8.0,9.0,29,0.00,,,0.00,meteohub,2013-04-12 18:20:00,
2013-04-12 13:25:00,79.5,44.4,29.99,SE,135,4.0,10.0,29,0.00,,,0.00,meteohub,2013-04-12 18:25:00,
2013-04-12 14:26:00,82.6,44.2,29.96,SE,135,7.0,10.0,26,0.00,,,0.00,meteohub,2013-04-12 19:26:00,
2013-04-12 14:27:00,82.2,39.6,29.96,NNE,23,4.0,10.0,22,0.00,,,0.00,meteohub,2013-04-12 19:27:00,
2013-04-12 14:29:00,82.0,41.7,29.96,East,90,8.0,10.0,24,0.00,,,0.00,meteohub,2013-04-12 19:29:00,
2013-04-12 14:34:00,81.9,39.2,29.95,NE,45,10.0,10.0,22,0.00,,,0.00,meteohub,2013-04-12 19:34:00,
2013-04-12 14:39:00,82.9,44.6,29.95,East,90,2.0,12.0,26,0.00,,,0.00,meteohub,2013-04-12 19:39:00,
2013-04-12 14:44:00,83.8,45.3,29.95,North,0,4.0,12.0,26,0.00,,,0.00,meteohub,2013-04-12 19:44:00,
2013-04-12 14:49:00,86.4,45.3,29.95,NE,45,6.0,12.0,24,0.00,,,0.00,meteohub,2013-04-12 19:49:00,
2013-04-12 14:54:00,84.4,43.7,29.94,East,90,8.0,9.0,24,0.00,,,0.00,meteohub,2013-04-12 19:54:00,
2013-04-12 14:59:00,83.3,44.8,29.94,NE,45,4.0,9.0,26,0.00,,,0.00,meteohub,2013-04-12 19:59:00,
2013-04-12 15:04:00,83.8,45.3,29.94,NE,45,4.0,9.0,26,0.00,,,0.00,meteohub,2013-04-12 20:04:00,
2013-04-12 15:09:00,84.7,45.0,29.94,NE,45,8.0,9.0,25,0.00,,,0.00,meteohub,2013-04-12 20:09:00,
2013-04-12 15:14:00,84.2,43.5,29.94,SE,135,7.0,9.0,24,0.00,,,0.00,meteohub,2013-04-12 20:14:00,
2013-04-12 15:19:00,83.7,44.1,29.94,NE,45,10.0,11.0,25,0.00,,,0.00,meteohub,2013-04-12 20:19:00,
2013-04-12 15:24:00,82.6,44.2,29.93,West,270,7.0,11.0,26,0.00,,,0.00,meteohub,2013-04-12 20:24:00,
2013-04-12 15:29:00,84.4,43.7,29.93,NE,45,3.0,12.0,24,0.00,,,0.00,meteohub,2013-04-12 20:29:00,
2013-04-12 15:34:00,86.7,44.4,29.92,NE,45,6.0,12.0,23,0.00,,,0.00,meteohub,2013-04-12 20:34:00,
2013-04-12 15:39:00,86.0,43.9,29.92,NE,45,7.0,12.0,23,0.00,,,0.00,meteohub,2013-04-12 20:39:00,
2013-04-12 15:44:00,86.5,44.4,29.92,NE,45,4.0,10.0,23,0.00,,,0.00,meteohub,2013-04-12 20:44:00,
2013-04-12 15:49:00,87.4,45.1,29.91,North,0,4.0,10.0,23,0.00,,,0.00,meteohub,2013-04-12 20:49:00,
2013-04-12 15:54:00,88.0,43.2,29.91,NE,45,6.0,10.0,21,0.00,,,0.00,meteohub,2013-04-12 20:54:00,
2013-04-12 15:59:00,86.9,43.5,29.91,NE,45,7.0,8.0,22,0.00,,,0.00,meteohub,2013-04-12 20:59:00,
2013-04-12 16:04:00,86.5,44.4,29.91,North,0,3.0,11.0,23,0.00,,,0.00,meteohub,2013-04-12 21:04:00,
2013-04-12 16:09:00,88.0,41.9,29.90,North,0,6.0,11.0,20,0.00,,,0.00,meteohub,2013-04-12 21:09:00,
2013-04-12 16:15:00,87.8,40.5,29.90,East,90,9.0,11.0,19,0.00,,,0.00,meteohub,2013-04-12 21:15:00,
2013-04-12 16:20:00,86.0,42.8,29.90,ENE,68,5.0,7.0,22,0.00,,,0.00,meteohub,2013-04-12 21:20:00,
2013-04-12 16:25:00,85.1,44.2,29.90,NE,45,2.0,11.0,24,0.00,,,0.00,meteohub,2013-04-12 21:25:00,
2013-04-12 16:30:00,87.6,44.1,29.90,NE,45,4.0,11.0,22,0.00,,,0.00,meteohub,2013-04-12 21:30:00,
2013-04-12 16:35:00,87.8,41.7,29.90,East,90,9.0,11.0,20,0.00,,,0.00,meteohub,2013-04-12 21:35:00,
2013-04-12 16:40:00,86.2,42.8,29.90,East,90,11.0,11.0,22,0.00,,,0.00,meteohub,2013-04-12 21:40:00,
2013-04-12 16:45:00,85.3,41.0,29.89,ESE,113,6.0,11.0,21,0.00,,,0.00,meteohub,2013-04-12 21:45:00,
2013-04-12 16:50:00,84.4,43.7,29.89,East,90,6.0,11.0,24,0.00,,,0.00,meteohub,2013-04-12 21:50:00,
2013-04-12 16:55:00,84.9,40.6,29.89,East,90,8.0,11.0,21,0.00,,,0.00,meteohub,2013-04-12 21:55:00,
2013-04-12 17:00:00,85.6,42.4,29.89,NE,45,6.0,11.0,22,0.00,,,0.00,meteohub,2013-04-12 22:00:00,
2013-04-12 17:05:00,85.5,42.3,29.89,NE,45,9.0,11.0,22,0.00,,,0.00,meteohub,2013-04-12 22:05:00,
2013-04-12 17:10:00,84.6,41.5,29.89,East,90,9.0,10.0,22,0.00,,,0.00,meteohub,2013-04-12 22:10:00,
2013-04-12 17:15:00,84.4,43.7,29.88,ENE,68,8.0,11.0,24,0.00,,,0.00,meteohub,2013-04-12 22:15:00,
2013-04-12 17:20:00,86.4,41.9,29.88,NE,45,3.0,11.0,21,0.00,,,0.00,meteohub,2013-04-12 22:20:00,
2013-04-12 17:25:00,86.2,42.8,29.88,East,90,6.0,11.0,22,0.00,,,0.00,meteohub,2013-04-12 22:25:00,
2013-04-12 17:30:00,87.3,42.6,29.88,NE,45,5.0,8.0,21,0.00,,,0.00,meteohub,2013-04-12 22:30:00,
2013-04-12 17:35:00,86.5,40.6,29.88,East,90,7.0,11.0,20,0.00,,,0.00,meteohub,2013-04-12 22:35:00,
2013-04-12 17:41:00,84.9,43.0,29.88,NE,45,8.0,15.0,23,0.00,,,0.00,meteohub,2013-04-12 22:41:00,
2013-04-12 17:46:00,84.2,43.5,29.88,East,90,6.0,15.0,24,0.00,,,0.00,meteohub,2013-04-12 22:46:00,
2013-04-12 17:51:00,84.4,43.7,29.88,North,0,7.0,15.0,24,0.00,,,0.00,meteohub,2013-04-12 22:51:00,
2013-04-12 17:56:00,84.2,43.5,29.88,NE,45,8.0,11.0,24,0.00,,,0.00,meteohub,2013-04-12 22:56:00,
2013-04-12 18:01:00,83.7,44.1,29.88,NE,45,5.0,11.0,25,0.00,,,0.00,meteohub,2013-04-12 23:01:00,
2013-04-12 18:06:00,83.5,43.9,29.88,East,90,5.0,11.0,25,0.00,,,0.00,meteohub,2013-04-12 23:06:00,
2013-04-12 18:11:00,84.0,44.4,29.88,North,0,4.0,10.0,25,0.00,,,0.00,meteohub,2013-04-12 23:11:00,
2013-04-12 18:16:00,84.2,43.5,29.88,North,0,3.0,10.0,24,0.00,,,0.00,meteohub,2013-04-12 23:16:00,
2013-04-12 18:21:00,84.2,43.5,29.88,East,90,13.0,13.0,24,0.00,,,0.00,meteohub,2013-04-12 23:21:00,
2013-04-12 18:26:00,82.6,43.2,29.88,NE,45,5.0,13.0,25,0.00,,,0.00,meteohub,2013-04-12 23:26:00,
2013-04-12 18:31:00,82.8,43.3,29.88,NE,45,4.0,13.0,25,0.00,,,0.00,meteohub,2013-04-12 23:31:00,
2013-04-12 18:36:00,82.6,43.2,29.89,NE,45,5.0,13.0,25,0.00,,,0.00,meteohub,2013-04-12 23:36:00,
2013-04-12 18:41:00,82.2,38.5,29.88,NE,45,3.0,8.0,21,0.00,,,0.00,meteohub,2013-04-12 23:41:00,
2013-04-12 18:46:00,82.9,43.5,29.89,ENE,68,4.0,8.0,25,0.00,,,0.00,meteohub,2013-04-12 23:46:00,
2013-04-12 18:51:00,82.8,43.3,29.88,SE,135,4.0,8.0,25,0.00,,,0.00,meteohub,2013-04-12 23:51:00,
2013-04-12 18:56:00,82.6,43.2,29.88,NE,45,6.0,8.0,25,0.00,,,0.00,meteohub,2013-04-12 23:56:00,
2013-04-12 19:01:00,82.6,43.2,29.88,East,90,4.0,8.0,25,0.00,,,0.00,meteohub,2013-04-13 00:01:00,
2013-04-12 19:07:00,81.7,39.2,29.88,East,90,4.0,8.0,22,0.00,,,0.00,meteohub,2013-04-13 00:07:00,
2013-04-12 19:12:00,81.1,38.7,29.88,ENE,68,6.0,7.0,22,0.00,,,0.00,meteohub,2013-04-13 00:12:00,
2013-04-12 19:17:00,80.4,40.3,29.88,NE,45,5.0,7.0,24,0.00,,,0.00,meteohub,2013-04-13 00:17:00,
2013-04-12 19:22:00,79.9,39.9,29.89,NNE,23,5.0,7.0,24,0.00,,,0.00,meteohub,2013-04-13 00:22:00,
2013-04-12 19:27:00,79.5,40.6,29.89,North,0,5.0,7.0,25,0.00,,,0.00,meteohub,2013-04-13 00:27:00,
2013-04-12 19:32:00,79.5,40.6,29.89,North,0,5.0,5.0,25,0.00,,,0.00,meteohub,2013-04-13 00:32:00,
2013-04-12 19:37:00,79.5,40.6,29.88,North,0,5.0,5.0,25,0.00,,,0.00,meteohub,2013-04-13 00:37:00,
2013-04-12 19:42:00,75.7,41.2,29.89,SW,225,4.0,6.0,29,0.00,,,0.00,meteohub,2013-04-13 00:42:00,
2013-04-12 19:47:00,75.0,41.5,29.89,NE,45,3.0,6.0,30,0.00,,,0.00,meteohub,2013-04-13 00:47:00,
2013-04-12 19:52:00,74.1,41.5,29.89,East,90,3.0,6.0,31,0.00,,,0.00,meteohub,2013-04-13 00:52:00,
2013-04-12 19:57:00,73.4,41.7,29.89,NE,45,4.0,6.0,32,0.00,,,0.00,meteohub,2013-04-13 00:57:00,
2013-04-12 20:02:00,72.5,41.0,29.89,NE,45,2.0,5.0,32,0.00,,,0.00,meteohub,2013-04-13 01:02:00,
2013-04-12 20:07:00,72.1,40.6,29.89,NE,45,4.0,5.0,32,0.00,,,0.00,meteohub,2013-04-13 01:07:00,
2013-04-12 20:12:00,71.8,41.2,29.89,NE,45,3.0,5.0,33,0.00,,,0.00,meteohub,2013-04-13 01:12:00,
2013-04-12 20:17:00,71.1,41.4,29.90,NE,45,3.0,5.0,34,0.00,,,0.00,meteohub,2013-04-13 01:17:00,
2013-04-12 20:23:00,70.7,41.7,29.90,NE,45,3.0,4.0,35,0.00,,,0.00,meteohub,2013-04-13 01:23:00,
2013-04-12 20:28:00,70.3,41.4,29.90,NE,45,2.0,4.0,35,0.00,,,0.00,meteohub,2013-04-13 01:28:00,
2013-04-12 20:33:00,70.0,41.7,29.91,NE,45,2.0,4.0,36,0.00,,,0.00,meteohub,2013-04-13 01:33:00,
2013-04-12 20:38:00,69.4,42.1,29.91,NE,45,2.0,4.0,37,0.00,,,0.00,meteohub,2013-04-13 01:38:00,
2013-04-12 20:43:00,68.9,42.3,29.91,NE,45,2.0,4.0,38,0.00,,,0.00,meteohub,2013-04-13 01:43:00,
2013-04-12 20:48:00,68.5,42.6,29.91,NE,45,2.0,2.0,39,0.00,,,0.00,meteohub,2013-04-13 01:48:00,
2013-04-12 20:53:00,68.4,43.2,29.91,NE,45,2.0,3.0,40,0.00,,,0.00,meteohub,2013-04-13 01:53:00,
2013-04-12 20:58:00,68.0,42.8,29.91,NE,45,2.0,3.0,40,0.00,,,0.00,meteohub,2013-04-13 01:58:00,
2013-04-12 21:03:00,68.0,42.8,29.91,NE,45,2.0,3.0,40,0.00,,,0.00,meteohub,2013-04-13 02:03:00,
2013-04-12 21:08:00,67.5,44.2,29.91,East,90,3.0,3.0,43,0.00,,,0.00,meteohub,2013-04-13 02:08:00,
2013-04-12 21:14:00,67.3,44.6,29.92,WSW,248,2.0,3.0,44,0.00,,,0.00,meteohub,2013-04-13 02:14:00,
2013-04-12 21:19:00,66.7,44.1,29.92,NE,45,2.0,3.0,44,0.00,,,0.00,meteohub,2013-04-13 02:19:00,
2013-04-12 21:24:00,66.4,43.9,29.92,NE,45,2.0,3.0,44,0.00,,,0.00,meteohub,2013-04-13 02:24:00,
2013-04-12 21:29:00,66.0,44.6,29.92,East,90,2.0,3.0,46,0.00,,,0.00,meteohub,2013-04-13 02:29:00,
2013-04-12 21:34:00,65.5,44.2,29.92,North,0,2.0,2.0,46,0.00,,,0.00,meteohub,2013-04-13 02:34:00,
2013-04-12 21:39:00,65.1,43.9,29.93,NE,45,2.0,2.0,46,0.00,,,0.00,meteohub,2013-04-13 02:39:00,
2013-04-12 21:44:00,64.4,44.2,29.93,NE,45,0.0,2.0,48,0.00,,,0.00,meteohub,2013-04-13 02:44:00,
2013-04-12 21:49:00,63.7,44.2,29.93,NE,45,2.0,2.0,49,0.00,,,0.00,meteohub,2013-04-13 02:49:00,
2013-04-12 21:54:00,63.3,45.0,29.93,NE,45,2.0,2.0,51,0.00,,,0.00,meteohub,2013-04-13 02:54:00,
2013-04-12 21:59:00,63.1,44.8,29.94,NE,45,2.0,2.0,51,0.00,,,0.00,meteohub,2013-04-13 02:59:00,
2013-04-12 22:04:00,63.1,44.8,29.94,NE,45,2.0,2.0,51,0.00,,,0.00,meteohub,2013-04-13 03:04:00,
2013-04-12 22:10:00,62.8,45.0,29.94,East,90,2.0,2.0,52,0.00,,,0.00,meteohub,2013-04-13 03:10:00,
2013-04-12 22:15:00,62.1,45.1,29.94,East,90,2.0,2.0,54,0.00,,,0.00,meteohub,2013-04-13 03:15:00,
2013-04-12 22:20:00,61.3,44.6,29.94,East,90,2.0,2.0,54,0.00,,,0.00,meteohub,2013-04-13 03:20:00,
2013-04-12 22:25:00,60.6,45.3,29.94,East,90,2.0,4.0,57,0.00,,,0.00,meteohub,2013-04-13 03:25:00,
2013-04-12 22:30:00,60.3,45.5,29.95,East,90,1.0,4.0,58,0.00,,,0.00,meteohub,2013-04-13 03:30:00,
2013-04-12 22:35:00,60.3,45.5,29.95,NE,45,2.0,2.0,58,0.00,,,0.00,meteohub,2013-04-13 03:35:00,
2013-04-12 22:40:00,61.2,44.8,29.95,NE,45,2.0,2.0,55,0.00,,,0.00,meteohub,2013-04-13 03:40:00,
2013-04-12 22:45:00,61.7,45.3,29.96,NE,45,2.0,3.0,55,0.00,,,0.00,meteohub,2013-04-13 03:45:00,
2013-04-12 22:50:00,62.2,45.3,29.96,NE,45,2.0,3.0,54,0.00,,,0.00,meteohub,2013-04-13 03:50:00,
2013-04-12 22:55:00,62.6,45.1,29.96,East,90,2.0,3.0,53,0.00,,,0.00,meteohub,2013-04-13 03:55:00,
2013-04-12 23:00:00,62.6,45.1,29.96,NE,45,2.0,3.0,53,0.00,,,0.00,meteohub,2013-04-13 04:00:00,
2013-04-12 23:01:00,62.6,45.1,29.96,NE,45,2.0,3.0,53,0.00,,,0.00,meteohub,2013-04-13 04:01:00,
2013-04-12 23:06:00,62.6,45.1,29.96,NE,45,2.0,2.0,53,0.00,,,0.00,meteohub,2013-04-13 04:06:00,
2013-04-12 23:11:00,63.3,45.3,29.96,ESE,113,4.0,4.0,52,0.00,,,0.00,meteohub,2013-04-13 04:11:00,
2013-04-12 23:17:00,64.0,45.5,29.96,NNE,23,6.0,6.0,51,0.00,,,0.00,meteohub,2013-04-13 04:17:00,
2013-04-12 23:22:00,64.8,45.7,29.96,NE,45,4.0,6.0,50,0.00,,,0.00,meteohub,2013-04-13 04:22:00,
2013-04-12 23:27:00,64.8,46.2,29.97,NE,45,4.0,6.0,51,0.00,,,0.00,meteohub,2013-04-13 04:27:00,
2013-04-12 23:32:00,64.6,46.6,29.97,NE,45,3.0,6.0,52,0.00,,,0.00,meteohub,2013-04-13 04:32:00,
2013-04-12 23:37:00,64.4,47.5,29.97,East,90,6.0,7.0,54,0.00,,,0.00,meteohub,2013-04-13 04:37:00,
2013-04-12 23:42:00,64.9,47.8,29.97,North,0,5.0,7.0,54,0.00,,,0.00,meteohub,2013-04-13 04:42:00,
2013-04-12 23:47:00,64.9,48.4,29.97,NE,45,6.0,7.0,55,0.00,,,0.00,meteohub,2013-04-13 04:47:00,
2013-04-12 23:52:00,64.9,48.4,29.98,NE,45,5.0,7.0,55,0.00,,,0.00,meteohub,2013-04-13 04:52:00,
2013-04-12 23:57:00,65.1,48.6,29.98,East,90,5.0,8.0,55,0.00,,,0.00,meteohub,2013-04-13 04:57:00,